Time;durP1;ratioP1;P1;durP2;ratioP2;P2;SDS_P1;SDS_P2;PMS_P1;PMS_P2;Temp;Humidity;BMP_temperature;BMP_pressure;BME280_temperature;BME280_humidity;BME280_pressure;Samples;Min_cycle;Max_cycle;Signal;HPM_P1;HPM_P2
2021/07/22 00:01:06;;;;;;;15.17;13.57;;;16.80;99.90;;;;;;5005921;28;20272;-77
2021/07/22 00:03:33;;;;;;;15.33;13.83;;;16.90;99.90;;;;;;5004170;28;20202;-78
2021/07/22 00:06:01;;;;;;;14.60;13.27;;;16.80;99.90;;;;;;4988209;28;20280;-78
2021/07/22 00:08:30;;;;;;;13.97;12.57;;;16.80;99.90;;;;;;4987774;28;20651;-78
2021/07/22 00:10:56;;;;;;;13.10;11.80;;;16.70;99.90;;;;;;5003032;28;20213;-78
2021/07/22 00:13:23;;;;;;;13.57;12.13;;;16.70;99.90;;;;;;4988206;28;20195;-78
2021/07/22 00:15:50;;;;;;;13.53;12.13;;;16.60;99.90;;;;;;5003121;28;20224;-78
2021/07/22 00:18:17;;;;;;;13.23;11.93;;;16.60;99.90;;;;;;4987813;28;20192;-78
2021/07/22 00:20:44;;;;;;;13.70;12.30;;;16.50;99.90;;;;;;5004051;28;20216;-78
2021/07/22 00:23:12;;;;;;;11.80;10.27;;;16.60;99.90;;;;;;5005186;28;20265;-77
2021/07/22 00:25:41;;;;;;;11.07;8.57;;;16.50;99.90;;;;;;5004156;28;20304;-77
2021/07/22 00:28:08;;;;;;;12.83;8.70;;;16.50;99.90;;;;;;5004450;28;20196;-77
2021/07/22 00:30:35;;;;;;;10.50;8.23;;;16.50;99.90;;;;;;4987156;28;20203;-78
2021/07/22 00:33:02;;;;;;;12.67;9.67;;;16.50;99.90;;;;;;4986991;28;20194;-77
2021/07/22 00:35:29;;;;;;;12.23;9.30;;;16.50;99.90;;;;;;5005114;28;20225;-78
2021/07/22 00:37:56;;;;;;;15.80;9.40;;;16.50;99.90;;;;;;5003790;28;20536;-79
2021/07/22 00:40:23;;;;;;;11.73;9.53;;;16.50;99.90;;;;;;4987523;28;20204;-77
2021/07/22 00:43:00;;;;;;;11.67;9.13;;;16.50;99.90;;;;;;5002225;28;20769;-77
2021/07/22 00:45:28;;;;;;;11.30;9.83;;;16.50;99.90;;;;;;4988955;28;20281;-77
2021/07/22 00:47:55;;;;;;;10.53;9.43;;;16.40;99.90;;;;;;5002293;28;20193;-78
2021/07/22 00:50:23;;;;;;;13.97;12.57;;;16.40;99.90;;;;;;5007043;28;20195;-77
2021/07/22 00:52:49;;;;;;;12.87;11.57;;;16.40;99.90;;;;;;5000892;28;20199;-77
2021/07/22 00:55:19;;;;;;;13.50;12.10;;;16.40;99.90;;;;;;4979495;28;20214;-78
2021/07/22 00:57:46;;;;;;;13.87;12.47;;;16.40;99.90;;;;;;4989632;28;20660;-77
2021/07/22 01:00:15;;;;;;;12.70;9.70;;;16.30;99.90;;;;;;4999907;28;20286;-78
2021/07/22 01:02:44;;;;;;;12.23;9.43;;;16.30;99.90;;;;;;4990677;28;20205;-77
2021/07/22 01:05:11;;;;;;;14.10;9.97;;;16.30;99.90;;;;;;4983450;28;20280;-77
2021/07/22 01:07:39;;;;;;;10.93;8.87;;;16.30;99.90;;;;;;5008580;28;20193;-76
2021/07/22 01:10:10;;;;;;;13.93;9.57;;;16.30;99.90;;;;;;4983607;28;20194;-77
2021/07/22 01:12:38;;;;;;;11.03;9.53;;;16.30;99.90;;;;;;4984458;28;20591;-77
2021/07/22 01:15:06;;;;;;;10.60;9.20;;;16.30;99.90;;;;;;4988185;28;20281;-77
2021/07/22 01:17:43;;;;;;;12.07;9.97;;;16.30;99.90;;;;;;5001332;28;20194;-77
2021/07/22 01:20:15;;;;;;;14.37;12.20;;;16.30;99.90;;;;;;4987447;28;20821;-77
2021/07/22 01:22:43;;;;;;;14.13;12.50;;;16.30;99.90;;;;;;4978948;28;20297;-77
2021/07/22 01:25:11;;;;;;;14.90;12.70;;;16.30;99.90;;;;;;4989042;28;20411;-77
2021/07/22 01:27:39;;;;;;;14.37;11.23;;;16.20;99.90;;;;;;5001840;28;20199;-77
2021/07/22 01:30:10;;;;;;;12.40;9.77;;;16.20;99.90;;;;;;4997111;28;20645;-77
2021/07/22 01:32:39;;;;;;;11.03;9.03;;;16.20;99.90;;;;;;5001855;28;20203;-78
2021/07/22 01:35:07;;;;;;;13.33;9.27;;;16.20;99.90;;;;;;4983180;28;20223;-77
2021/07/22 01:37:36;;;;;;;14.60;9.83;;;16.20;99.90;;;;;;4979927;28;20791;-77
2021/07/22 01:40:10;;;;;;;11.70;10.37;;;16.10;99.90;;;;;;4981641;28;20195;-77
2021/07/22 01:42:37;;;;;;;12.00;8.87;;;16.10;99.90;;;;;;4980069;28;20204;-78
2021/07/22 01:45:05;;;;;;;11.50;8.90;;;16.00;99.90;;;;;;4984119;28;20550;-78
2021/07/22 01:47:34;;;;;;;13.53;11.17;;;15.90;99.90;;;;;;4982865;28;20617;-77
2021/07/22 01:50:02;;;;;;;14.23;12.73;;;15.90;99.90;;;;;;4983024;28;20260;-77
2021/07/22 01:52:30;;;;;;;13.90;9.80;;;16.00;99.90;;;;;;4999425;28;20220;-77
2021/07/22 01:54:59;;;;;;;12.20;9.40;;;15.90;99.90;;;;;;4996610;28;20201;-77
2021/07/22 01:57:27;;;;;;;11.07;9.63;;;15.90;99.90;;;;;;4982319;28;20243;-77
2021/07/22 01:59:59;;;;;;;10.03;8.80;;;15.90;99.90;;;;;;4978442;28;20284;-77
2021/07/22 02:02:27;;;;;;;12.03;9.57;;;15.80;99.90;;;;;;5002526;28;20653;-77
2021/07/22 02:04:56;;;;;;;15.67;14.07;;;15.70;99.90;;;;;;4982599;28;20288;-77
2021/07/22 02:07:23;;;;;;;14.60;13.20;;;15.70;99.90;;;;;;5006260;28;20216;-79
2021/07/22 02:10:01;;;;;;;15.50;13.50;;;15.70;99.90;;;;;;5012061;28;20184;-77
2021/07/22 02:12:27;;;;;;;16.17;13.67;;;15.60;99.90;;;;;;4987967;28;20196;-77
2021/07/22 02:14:55;;;;;;;15.87;14.27;;;15.60;99.90;;;;;;4978059;28;20203;-77
2021/07/22 02:17:22;;;;;;;15.80;14.20;;;15.60;99.90;;;;;;4980694;28;20217;-77
2021/07/22 02:19:49;;;;;;;15.50;14.00;;;15.60;99.90;;;;;;4999469;28;20313;-77
2021/07/22 02:22:17;;;;;;;15.13;13.63;;;15.50;99.90;;;;;;4982841;28;20255;-77
2021/07/22 02:25:13;;;;;;;14.93;13.43;;;15.50;99.90;;;;;;4976683;28;20329;-77
2021/07/22 02:27:44;;;;;;;15.23;13.70;;;15.40;99.90;;;;;;4974542;28;20197;-77
2021/07/22 02:30:14;;;;;;;15.30;13.90;;;15.50;99.90;;;;;;4982873;28;20193;-77
2021/07/22 02:32:41;;;;;;;14.67;13.30;;;15.40;99.90;;;;;;5000437;28;20220;-77
2021/07/22 02:35:09;;;;;;;15.20;13.77;;;15.40;99.90;;;;;;4996784;28;20243;-76
2021/07/22 02:37:56;;;;;;;15.03;13.43;;;15.40;99.90;;;;;;4987411;28;20649;-76
2021/07/22 02:40:27;;;;;;;16.80;15.07;;;15.30;99.90;;;;;;4985861;28;20205;-76
2021/07/22 02:42:54;;;;;;;15.50;13.93;;;15.30;99.90;;;;;;5002468;28;20199;-78
2021/07/22 02:45:26;;;;;;;15.60;14.00;;;15.30;99.90;;;;;;4981219;28;20199;-78
2021/07/22 02:47:58;;;;;;;15.80;14.30;;;15.20;99.90;;;;;;4977346;28;20243;-78
2021/07/22 02:50:46;;;;;;;16.20;14.70;;;15.10;99.90;;;;;;4994467;28;20677;-78
2021/07/22 02:53:36;;;;;;;15.20;13.80;;;15.20;99.90;;;;;;4987398;28;20208;-78
2021/07/22 02:57:02;;;;;;;15.13;13.73;;;15.10;99.90;;;;;;4995573;28;20236;-78
2021/07/22 03:03:40;;;;;;;15.43;13.93;;;15.00;99.90;;;;;;4970033;28;20285;-78
2021/07/22 03:06:14;;;;;;;14.77;13.37;;;15.00;99.90;;;;;;4956007;28;20690;-77
2021/07/22 03:08:45;;;;;;;15.83;14.23;;;15.00;99.90;;;;;;4980226;28;20287;-79
2021/07/22 03:11:13;;;;;;;18.87;14.13;;;15.00;99.90;;;;;;5012810;28;20713;-78
2021/07/22 03:13:41;;;;;;;20.37;15.10;;;15.00;99.90;;;;;;4989076;28;20199;-77
2021/07/22 03:16:11;;;;;;;16.10;14.37;;;15.00;99.90;;;;;;4980987;28;20225;-77
2021/07/22 03:19:01;;;;;;;16.60;14.83;;;15.10;99.90;;;;;;5004927;28;20284;-77
2021/07/22 03:21:34;;;;;;;16.37;14.27;;;15.10;99.90;;;;;;4995835;28;20207;-77
2021/07/22 03:24:21;;;;;;;14.60;13.30;;;15.10;99.90;;;;;;5006596;28;20275;-77
2021/07/22 03:26:48;;;;;;;15.00;13.60;;;15.00;99.90;;;;;;4979342;28;20271;-76
2021/07/22 03:29:19;;;;;;;15.00;13.60;;;15.10;99.90;;;;;;5001683;28;20262;-76
2021/07/22 03:31:45;;;;;;;15.40;13.97;;;15.00;99.90;;;;;;5001112;28;20280;-75
2021/07/22 03:34:14;;;;;;;15.93;14.23;;;15.00;99.90;;;;;;5000814;28;20267;-78
2021/07/22 03:36:48;;;;;;;15.97;14.37;;;15.00;99.90;;;;;;4985687;28;20232;-76
2021/07/22 03:39:18;;;;;;;16.73;14.93;;;15.10;99.90;;;;;;5001458;28;20830;-77
2021/07/22 03:41:48;;;;;;;15.33;13.83;;;15.10;99.90;;;;;;5002183;28;20204;-77
2021/07/22 03:44:32;;;;;;;16.27;14.53;;;15.10;99.90;;;;;;5000330;28;20200;-77
2021/07/22 03:46:59;;;;;;;15.53;13.93;;;15.20;99.90;;;;;;4984868;28;20302;-77
2021/07/22 03:49:26;;;;;;;15.50;13.90;;;15.20;99.90;;;;;;5004666;28;20213;-77
2021/07/22 03:51:56;;;;;;;16.90;15.10;;;15.20;99.90;;;;;;5005975;28;20193;-77
2021/07/22 03:54:30;;;;;;;15.73;13.63;;;15.20;99.90;;;;;;5004781;28;20748;-77
2021/07/22 03:56:58;;;;;;;15.80;14.20;;;15.20;99.90;;;;;;4983183;28;20231;-77
2021/07/22 03:59:26;;;;;;;15.93;14.33;;;15.20;99.90;;;;;;5001184;28;20603;-78
2021/07/22 04:01:58;;;;;;;15.90;14.30;;;15.20;99.90;;;;;;4977179;28;20189;-77
2021/07/22 04:04:30;;;;;;;15.07;13.57;;;15.20;99.90;;;;;;4984924;28;20212;-78
2021/07/22 04:06:58;;;;;;;16.70;15.07;;;15.20;99.90;;;;;;5001853;28;20201;-78
2021/07/22 04:09:45;;;;;;;10.63;9.33;;;15.20;99.90;;;;;;4986631;28;20239;-77
2021/07/22 04:12:31;;;;;;;13.70;10.20;;;15.20;99.90;;;;;;4999125;28;20202;-77
2021/07/22 04:15:22;;;;;;;14.00;10.13;;;15.20;99.90;;;;;;4979958;28;20599;-78
2021/07/22 04:18:05;;;;;;;17.73;10.77;;;15.30;99.90;;;;;;4994921;28;20193;-78
2021/07/22 04:21:04;;;;;;;14.20;10.20;;;15.30;99.90;;;;;;4983169;28;20611;-77
2021/07/22 04:23:50;;;;;;;13.67;9.93;;;15.40;99.90;;;;;;5003094;28;20288;-76
2021/07/22 04:26:33;;;;;;;11.50;8.90;;;15.40;99.90;;;;;;5002370;28;20295;-77
2021/07/22 04:29:18;;;;;;;13.53;9.77;;;15.50;99.90;;;;;;4995814;28;20221;-77
2021/07/22 04:31:46;;;;;;;17.83;10.07;;;15.60;99.90;;;;;;4984709;28;20566;-77
2021/07/22 04:34:26;;;;;;;15.43;9.47;;;15.60;99.90;;;;;;5000707;28;20201;-78
2021/07/22 04:37:24;;;;;;;11.53;8.63;;;15.60;99.90;;;;;;4979763;28;20809;-77
2021/07/22 04:40:06;;;;;;;17.53;10.43;;;15.70;99.90;;;;;;5001351;28;20185;-77
2021/07/22 04:42:50;;;;;;;12.77;9.47;;;15.70;99.90;;;;;;5002491;28;20625;-77
2021/07/22 04:45:37;;;;;;;15.53;9.00;;;15.80;99.90;;;;;;4998720;28;20224;-77
2021/07/22 04:48:12;;;;;;;16.77;10.17;;;16.00;99.90;;;;;;4984786;28;20259;-77
2021/07/22 04:50:53;;;;;;;11.37;9.20;;;16.10;99.90;;;;;;5002081;28;20205;-77
2021/07/22 04:53:29;;;;;;;12.17;10.97;;;16.20;99.90;;;;;;4992319;28;20193;-77
2021/07/22 04:56:03;;;;;;;16.30;11.47;;;16.40;99.90;;;;;;5016335;23;20687;-75
2021/07/22 04:58:32;;;;;;;15.13;12.27;;;16.60;99.90;;;;;;5053462;28;20197;-75
2021/07/22 05:01:03;;;;;;;12.37;9.57;;;16.70;99.90;;;;;;5047492;28;20248;-76
2021/07/22 05:03:30;;;;;;;13.50;12.17;;;16.90;99.90;;;;;;5068324;28;20221;-75
2021/07/22 05:05:59;;;;;;;14.00;12.67;;;16.90;99.90;;;;;;5047434;28;20714;-75
2021/07/22 05:08:45;;;;;;;13.53;12.33;;;17.20;99.90;;;;;;5058892;28;20203;-75
2021/07/22 05:11:31;;;;;;;13.93;12.40;;;17.40;99.90;;;;;;5058091;28;20232;-76
2021/07/22 05:14:04;;;;;;;16.70;15.20;;;17.70;99.90;;;;;;5046882;28;20281;-75
2021/07/22 05:16:54;;;;;;;13.63;12.27;;;17.80;99.90;;;;;;5048883;28;20324;-76
2021/07/22 05:19:53;;;;;;;14.93;13.53;;;17.90;99.90;;;;;;5041056;28;20196;-76
2021/07/22 05:22:40;;;;;;;14.97;13.57;;;18.00;99.90;;;;;;5040454;28;20206;-75
2021/07/22 05:25:11;;;;;;;14.50;13.10;;;18.00;99.90;;;;;;5042503;28;20646;-75
2021/07/22 05:27:53;;;;;;;13.70;12.40;;;18.10;99.90;;;;;;5046300;28;20217;-76
2021/07/22 05:30:32;;;;;;;14.40;12.90;;;18.20;99.90;;;;;;5041084;28;20197;-75
2021/07/22 05:33:24;;;;;;;11.43;10.07;;;18.20;99.90;;;;;;5043290;28;20197;-75
2021/07/22 05:36:10;;;;;;;13.27;12.03;;;18.30;99.90;;;;;;5038410;28;20213;-75
2021/07/22 05:38:46;;;;;;;13.87;12.67;;;18.30;99.90;;;;;;5040823;28;20187;-75
2021/07/22 05:41:13;;;;;;;14.83;13.53;;;18.20;99.90;;;;;;5060061;28;20260;-75
2021/07/22 05:43:40;;;;;;;14.03;12.73;;;18.10;99.90;;;;;;5061407;28;20194;-76
2021/07/22 05:46:07;;;;;;;12.50;10.63;;;18.20;99.90;;;;;;5060991;28;20218;-75
2021/07/22 05:48:34;;;;;;;13.17;11.77;;;18.40;99.90;;;;;;5061478;28;20202;-75
2021/07/22 05:51:01;;;;;;;14.90;13.50;;;18.60;99.90;;;;;;5061726;28;20213;-75
2021/07/22 05:53:28;;;;;;;14.30;12.80;;;19.00;99.90;;;;;;5043521;28;20707;-76
2021/07/22 05:55:58;;;;;;;12.23;11.03;;;19.50;99.90;;;;;;5060802;28;20211;-75
2021/07/22 05:58:25;;;;;;;13.47;11.93;;;20.10;99.90;;;;;;5062491;28;20809;-75
2021/07/22 06:00:52;;;;;;;14.37;12.97;;;20.60;99.90;;;;;;5057824;28;20207;-75
2021/07/22 06:03:19;;;;;;;14.43;13.13;;;20.80;99.90;;;;;;5064325;28;20193;-76
2021/07/22 06:05:46;;;;;;;13.43;12.07;;;21.20;99.90;;;;;;5059961;28;20221;-76
2021/07/22 06:08:12;;;;;;;13.90;12.60;;;21.40;99.90;;;;;;5056977;28;20187;-76
2021/07/22 06:10:39;;;;;;;12.23;11.03;;;21.40;99.90;;;;;;5069241;28;20207;-75
2021/07/22 06:13:08;;;;;;;13.83;12.43;;;21.40;99.90;;;;;;5060540;28;20187;-76
2021/07/22 06:15:34;;;;;;;15.17;13.67;;;21.40;99.90;;;;;;5060970;28;20609;-76
2021/07/22 06:18:01;;;;;;;12.83;11.53;;;21.60;99.90;;;;;;5060561;28;20642;-76
2021/07/22 06:20:28;;;;;;;12.00;9.33;;;21.70;99.90;;;;;;5063125;28;20256;-76
2021/07/22 06:22:55;;;;;;;12.63;11.43;;;21.70;99.90;;;;;;5057402;28;20197;-76
2021/07/22 06:25:22;;;;;;;14.60;13.30;;;21.70;99.90;;;;;;5056577;28;20285;-76
2021/07/22 06:27:49;;;;;;;14.77;13.37;;;21.50;99.90;;;;;;5062619;28;20214;-75
2021/07/22 06:30:17;;;;;;;13.10;11.90;;;21.40;99.90;;;;;;5059322;28;20191;-76
2021/07/22 06:32:44;;;;;;;13.17;11.87;;;21.50;99.90;;;;;;5044071;28;20281;-76
2021/07/22 06:35:11;;;;;;;13.20;11.87;;;21.70;99.90;;;;;;5062433;28;20690;-76
2021/07/22 06:37:46;;;;;;;13.50;12.00;;;22.00;99.90;;;;;;5061120;28;20269;-76
2021/07/22 06:40:14;;;;;;;14.40;13.03;;;22.50;99.90;;;;;;5042092;28;20213;-76
2021/07/22 06:42:41;;;;;;;10.13;8.33;;;22.70;99.90;;;;;;5044481;28;20223;-76
2021/07/22 06:45:09;;;;;;;13.20;12.00;;;23.00;99.90;;;;;;5061308;28;20278;-76
2021/07/22 06:47:39;;;;;;;13.23;11.90;;;23.30;99.90;;;;;;5067122;28;20207;-76
2021/07/22 06:50:08;;;;;;;14.93;13.43;;;23.70;99.90;;;;;;5061777;28;20709;-76
2021/07/22 06:52:36;;;;;;;14.10;12.70;;;23.70;99.90;;;;;;5059943;28;20196;-76
2021/07/22 06:55:03;;;;;;;11.70;10.30;;;23.90;99.90;;;;;;5066369;28;20270;-76
2021/07/22 06:57:30;;;;;;;12.03;10.80;;;23.80;99.90;;;;;;5063527;28;20230;-76
2021/07/22 06:59:57;;;;;;;12.30;10.90;;;24.20;99.90;;;;;;5062397;28;20612;-76
2021/07/22 07:02:24;;;;;;;12.50;11.30;;;24.50;99.90;;;;;;5064147;28;20205;-76
2021/07/22 07:04:52;;;;;;;11.73;10.50;;;24.40;99.90;;;;;;5064416;28;20244;-76
2021/07/22 07:07:19;;;;;;;9.73;8.73;;;24.60;99.90;;;;;;5047132;28;20693;-76
2021/07/22 07:09:46;;;;;;;11.87;10.67;;;24.60;99.90;;;;;;5043116;28;20207;-76
2021/07/22 07:12:13;;;;;;;11.73;10.57;;;24.70;99.90;;;;;;5061822;28;20190;-76
2021/07/22 07:14:40;;;;;;;12.37;9.30;;;25.00;99.90;;;;;;5064890;28;20199;-76
2021/07/22 07:17:07;;;;;;;13.53;12.23;;;25.40;99.90;;;;;;5064880;28;20243;-76
2021/07/22 07:19:34;;;;;;;10.50;8.40;;;25.70;99.90;;;;;;5064006;28;20183;-76
2021/07/22 07:22:02;;;;;;;9.23;7.83;;;25.70;99.90;;;;;;5063470;28;20184;-76
2021/07/22 07:24:29;;;;;;;10.60;9.50;;;25.70;99.90;;;;;;5063456;28;20210;-76
2021/07/22 07:26:56;;;;;;;13.87;10.93;;;26.00;99.90;;;;;;5041665;28;20211;-76
2021/07/22 07:29:23;;;;;;;12.13;10.93;;;25.90;99.90;;;;;;5046784;28;20730;-76
2021/07/22 07:31:50;;;;;;;11.13;10.03;;;26.00;99.90;;;;;;5058566;28;20223;-76
2021/07/22 07:34:17;;;;;;;10.47;9.27;;;26.20;99.90;;;;;;5048753;28;20194;-76
2021/07/22 07:36:44;;;;;;;12.20;10.97;;;26.10;99.90;;;;;;5043951;28;20226;-77
2021/07/22 07:39:15;;;;;;;12.53;11.43;;;26.10;99.90;;;;;;5063698;28;20202;-76
2021/07/22 07:41:42;;;;;;;12.07;10.27;;;26.30;99.90;;;;;;5064717;28;20202;-76
2021/07/22 07:44:09;;;;;;;11.30;10.30;;;26.50;99.90;;;;;;5063256;28;20194;-76
2021/07/22 07:46:36;;;;;;;12.90;10.37;;;26.00;99.90;;;;;;5064375;28;20214;-76
2021/07/22 07:49:03;;;;;;;13.63;12.33;;;26.00;99.90;;;;;;5066252;28;20674;-76
2021/07/22 07:51:30;;;;;;;14.23;12.80;;;25.90;99.90;;;;;;5066267;28;20613;-76
2021/07/22 07:53:57;;;;;;;12.33;11.13;;;26.30;99.90;;;;;;5047312;28;20248;-77
2021/07/22 07:56:26;;;;;;;12.13;10.90;;;26.30;99.90;;;;;;5065952;28;20229;-76
2021/07/22 07:58:52;;;;;;;11.77;10.70;;;26.30;99.90;;;;;;5065468;28;20260;-76
2021/07/22 08:01:21;;;;;;;13.93;11.03;;;26.00;99.90;;;;;;5071879;28;20252;-77
2021/07/22 08:03:48;;;;;;;11.57;10.50;;;26.50;99.90;;;;;;5048347;28;20187;-76
2021/07/22 08:06:15;;;;;;;12.27;10.17;;;26.50;99.90;;;;;;5048902;28;20225;-76
2021/07/22 08:08:42;;;;;;;13.53;12.23;;;26.60;99.90;;;;;;5067062;28;20225;-76
2021/07/22 08:11:09;;;;;;;15.57;14.10;;;26.60;99.90;;;;;;5060439;28;20194;-76
2021/07/22 08:13:38;;;;;;;16.03;14.63;;;26.50;99.90;;;;;;5059470;28;20199;-76
2021/07/22 08:16:05;;;;;;;14.07;12.87;;;27.00;99.90;;;;;;5061906;28;20203;-76
2021/07/22 08:18:32;;;;;;;14.13;12.73;;;27.00;99.90;;;;;;5062323;28;20690;-76
2021/07/22 08:20:59;;;;;;;13.83;12.53;;;26.90;99.90;;;;;;5064901;28;20198;-76
2021/07/22 08:23:26;;;;;;;13.77;12.37;;;26.90;99.90;;;;;;5062668;28;20229;-76
2021/07/22 08:25:52;;;;;;;12.37;11.27;;;26.90;99.90;;;;;;5064236;28;20191;-76
2021/07/22 08:28:19;;;;;;;13.80;12.50;;;26.90;99.90;;;;;;5043722;28;20203;-76
2021/07/22 08:30:47;;;;;;;13.50;12.10;;;26.80;99.90;;;;;;5057655;28;20187;-76
2021/07/22 08:33:14;;;;;;;13.20;11.83;;;26.90;99.90;;;;;;5064517;28;20656;-76
2021/07/22 08:35:41;;;;;;;14.63;12.53;;;27.20;99.90;;;;;;5065599;28;20354;-76
2021/07/22 08:38:11;;;;;;;13.27;12.03;;;27.10;99.90;;;;;;5061375;28;20624;-76
2021/07/22 08:40:40;;;;;;;11.00;8.57;;;27.50;99.90;;;;;;5040240;28;20206;-76
2021/07/22 08:43:07;;;;;;;12.43;11.33;;;27.80;99.90;;;;;;5065401;28;20615;-76
2021/07/22 08:45:34;;;;;;;16.37;14.87;;;27.90;99.90;;;;;;5060265;28;20207;-76
2021/07/22 08:48:03;;;;;;;14.23;12.93;;;28.00;99.90;;;;;;5043409;28;20214;-77
2021/07/22 08:50:29;;;;;;;10.73;9.43;;;28.10;99.90;;;;;;5069729;28;20687;-76
2021/07/22 08:52:57;;;;;;;10.57;8.93;;;28.30;99.90;;;;;;5044701;28;20570;-76
2021/07/22 08:55:24;;;;;;;10.53;8.23;;;28.20;99.90;;;;;;5061695;28;20192;-76
2021/07/22 08:57:54;;;;;;;11.57;10.37;;;28.10;99.90;;;;;;5063543;28;20218;-76
2021/07/22 09:00:21;;;;;;;11.50;10.47;;;28.30;99.90;;;;;;5060799;28;20714;-77
2021/07/22 09:02:47;;;;;;;10.20;9.20;;;28.60;99.90;;;;;;5038532;28;20195;-76
2021/07/22 09:05:15;;;;;;;11.10;10.00;;;28.50;99.90;;;;;;5064854;28;20248;-76
2021/07/22 09:07:42;;;;;;;11.23;10.23;;;28.50;99.90;;;;;;5040729;28;20218;-77
2021/07/22 09:10:18;;;;;;;12.73;11.57;;;28.60;99.90;;;;;;5064973;28;20207;-76
2021/07/22 09:12:46;;;;;;;12.07;10.77;;;28.70;99.90;;;;;;5043466;28;20199;-77
2021/07/22 09:15:20;;;;;;;12.03;10.83;;;28.90;99.90;;;;;;5062197;28;20194;-76
2021/07/22 09:17:47;;;;;;;12.50;11.30;;;28.50;99.90;;;;;;5044612;28;20278;-76
2021/07/22 09:20:28;;;;;;;13.07;11.77;;;28.50;99.90;;;;;;5061446;28;20187;-76
2021/07/22 09:22:55;;;;;;;12.67;11.67;;;28.60;99.90;;;;;;5060571;28;20202;-76
2021/07/22 09:25:38;;;;;;;12.60;11.27;;;28.70;99.90;;;;;;5061218;28;20195;-76
2021/07/22 09:28:06;;;;;;;12.73;11.53;;;28.60;99.90;;;;;;5058626;28;20244;-76
2021/07/22 09:30:33;;;;;;;12.50;11.47;;;28.70;99.90;;;;;;5061281;28;20210;-76
2021/07/22 09:33:00;;;;;;;12.60;11.50;;;29.10;99.90;;;;;;5057410;28;20708;-76
2021/07/22 09:35:28;;;;;;;13.47;12.20;;;28.80;99.90;;;;;;5046805;28;20194;-76
2021/07/22 09:37:56;;;;;;;13.17;12.07;;;28.90;99.90;;;;;;5041326;28;20218;-76
2021/07/22 09:40:34;;;;;;;13.20;11.90;;;29.20;99.90;;;;;;5058512;28;20712;-77
2021/07/22 09:43:01;;;;;;;12.83;11.57;;;29.30;99.90;;;;;;5053523;28;20191;-77
2021/07/22 09:45:30;;;;;;;12.33;11.23;;;29.60;99.90;;;;;;5060810;28;20198;-77
2021/07/22 09:48:06;;;;;;;12.13;10.87;;;29.70;99.90;;;;;;5052458;28;20199;-76
2021/07/22 09:50:41;;;;;;;12.87;11.73;;;29.30;99.90;;;;;;5061157;28;20705;-77
2021/07/22 09:53:09;;;;;;;12.87;11.77;;;29.00;99.90;;;;;;5054004;28;20187;-76
2021/07/22 09:55:38;;;;;;;12.93;11.63;;;29.20;99.90;;;;;;5061693;28;20187;-77
2021/07/22 09:58:06;;;;;;;13.20;12.10;;;29.10;99.90;;;;;;5043020;28;20214;-77
2021/07/22 10:00:35;;;;;;;13.37;12.27;;;29.00;99.90;;;;;;5060171;28;20202;-77
2021/07/22 10:03:03;;;;;;;14.10;12.73;;;29.20;99.90;;;;;;5060636;28;20274;-76
2021/07/22 10:05:34;;;;;;;12.03;10.77;;;29.10;99.60;;;;;;5037346;28;20257;-77
2021/07/22 10:08:02;;;;;;;11.30;10.30;;;29.20;99.90;;;;;;5053009;28;20218;-77
2021/07/22 10:10:29;;;;;;;10.73;9.83;;;29.60;99.90;;;;;;5042664;28;20195;-76
2021/07/22 10:12:57;;;;;;;12.63;11.53;;;29.90;99.20;;;;;;5060848;28;20194;-77
2021/07/22 10:15:27;;;;;;;13.97;12.67;;;29.70;98.90;;;;;;5060989;28;20195;-76
2021/07/22 10:17:56;;;;;;;13.57;12.37;;;29.10;98.20;;;;;;5061949;28;20233;-77
2021/07/22 10:20:25;;;;;;;14.03;12.73;;;29.00;99.10;;;;;;5046596;28;20286;-76
2021/07/22 10:22:52;;;;;;;13.73;12.50;;;29.10;99.90;;;;;;5067314;28;20215;-76
2021/07/22 10:25:20;;;;;;;13.33;12.10;;;28.70;98.40;;;;;;5063775;28;20256;-76
2021/07/22 10:27:46;;;;;;;11.77;10.67;;;28.80;99.90;;;;;;5041451;28;20237;-76
2021/07/22 10:30:16;;;;;;;12.30;11.30;;;28.90;99.90;;;;;;5067189;28;20190;-76
2021/07/22 10:32:48;;;;;;;12.07;11.07;;;29.10;99.90;;;;;;5061644;28;20199;-76
2021/07/22 10:35:20;;;;;;;12.40;11.30;;;29.00;99.20;;;;;;5062628;28;20241;-76
2021/07/22 10:38:06;;;;;;;12.73;11.63;;;28.60;98.60;;;;;;5066556;28;20215;-77
2021/07/22 10:40:54;;;;;;;12.47;11.37;;;28.60;99.30;;;;;;5062353;28;20607;-76
2021/07/22 10:43:41;;;;;;;12.13;11.00;;;28.40;99.90;;;;;;5044760;28;20195;-76
2021/07/22 10:46:10;;;;;;;14.23;13.00;;;28.20;99.90;;;;;;5057251;28;20215;-76
2021/07/22 10:48:38;;;;;;;12.83;11.63;;;28.20;99.90;;;;;;5064892;28;20199;-76
2021/07/22 10:51:10;;;;;;;12.97;11.77;;;28.10;99.90;;;;;;5065496;28;20186;-77
2021/07/22 10:53:44;;;;;;;12.03;11.03;;;28.00;99.90;;;;;;5046683;28;20266;-77
2021/07/22 10:56:16;;;;;;;12.13;11.17;;;28.30;99.90;;;;;;5070190;22;20763;-81
2021/07/22 10:58:58;;;;;;;12.43;11.33;;;28.50;99.90;;;;;;5018124;28;20216;-80
2021/07/22 11:01:56;;;;;;;11.87;10.77;;;28.60;99.90;;;;;;5011238;28;20242;-80
2021/07/22 11:04:42;;;;;;;14.50;11.90;;;28.20;99.30;;;;;;5015585;28;20213;-81
2021/07/22 11:07:24;;;;;;;12.43;11.37;;;27.90;99.50;;;;;;5018241;28;20204;-80
2021/07/22 11:09:55;;;;;;;13.83;12.53;;;27.40;99.90;;;;;;5001866;28;20231;-79
2021/07/22 11:12:55;;;;;;;13.57;12.47;;;27.60;99.90;;;;;;5015498;28;20169;-82
2021/07/22 11:16:00;;;;;;;14.17;12.90;;;27.60;99.90;;;;;;4957355;28;20196;-82
2021/07/22 11:18:50;;;;;;;15.87;12.77;;;27.50;99.90;;;;;;5013828;28;20224;-79
2021/07/22 11:21:18;;;;;;;13.37;12.17;;;27.50;99.90;;;;;;4995926;28;20200;-79
2021/07/22 11:23:54;;;;;;;13.53;12.40;;;27.60;99.80;;;;;;5001371;28;20227;-79
2021/07/22 11:26:25;;;;;;;13.73;12.47;;;27.40;99.90;;;;;;5001771;28;20222;-79
2021/07/22 11:28:53;;;;;;;13.60;12.30;;;27.50;99.90;;;;;;5000173;28;20259;-80
2021/07/22 11:31:20;;;;;;;12.43;11.30;;;27.60;99.90;;;;;;5018851;28;20185;-80
2021/07/22 11:33:47;;;;;;;14.20;12.90;;;27.60;99.90;;;;;;4999602;28;20274;-77
2021/07/22 11:36:16;;;;;;;14.13;12.90;;;27.60;99.90;;;;;;5014633;28;20722;-78
2021/07/22 11:38:50;;;;;;;13.73;12.53;;;27.50;99.90;;;;;;5014312;28;20287;-77
2021/07/22 11:41:17;;;;;;;13.93;12.73;;;27.60;99.90;;;;;;5014367;28;20271;-77
2021/07/22 11:43:45;;;;;;;13.03;11.87;;;27.70;99.90;;;;;;4997032;28;20205;-78
2021/07/22 11:46:15;;;;;;;14.30;13.00;;;27.70;99.90;;;;;;5014386;28;20192;-79
2021/07/22 11:48:43;;;;;;;13.27;12.20;;;27.60;99.90;;;;;;5021863;28;20274;-77
2021/07/22 11:51:11;;;;;;;13.93;12.57;;;27.60;99.90;;;;;;5014760;28;20557;-77
2021/07/22 11:53:39;;;;;;;13.87;12.50;;;27.70;99.90;;;;;;5014297;28;20254;-77
2021/07/22 11:56:13;;;;;;;14.63;13.23;;;27.80;99.90;;;;;;5013170;28;20200;-77
2021/07/22 11:58:41;;;;;;;14.37;13.17;;;27.70;99.90;;;;;;5012670;28;20425;-78
2021/07/22 12:01:08;;;;;;;15.00;13.50;;;27.60;99.90;;;;;;4996688;28;20209;-78
2021/07/22 12:03:37;;;;;;;14.27;12.87;;;27.50;99.90;;;;;;5006900;28;20658;-77
2021/07/22 12:06:04;;;;;;;13.80;12.70;;;27.30;99.90;;;;;;5014150;28;20184;-77
2021/07/22 12:08:30;;;;;;;13.97;12.43;;;27.20;99.90;;;;;;4996207;28;20192;-77
2021/07/22 12:11:03;;;;;;;13.80;12.53;;;27.10;99.90;;;;;;5005926;28;20197;-77
2021/07/22 12:13:51;;;;;;;14.23;12.93;;;27.10;99.90;;;;;;5012770;28;20192;-77
2021/07/22 12:16:21;;;;;;;13.90;12.70;;;27.20;99.90;;;;;;4996375;28;20207;-77
2021/07/22 12:18:53;;;;;;;14.40;13.10;;;27.20;99.90;;;;;;5013595;28;20208;-77
2021/07/22 12:21:24;;;;;;;15.00;13.50;;;27.30;99.90;;;;;;4996234;28;20212;-77
2021/07/22 12:23:51;;;;;;;13.53;12.23;;;27.30;99.90;;;;;;5013749;28;20200;-77
2021/07/22 12:26:19;;;;;;;13.50;12.40;;;27.20;99.90;;;;;;5012423;28;20189;-77
2021/07/22 12:28:46;;;;;;;13.90;12.70;;;27.30;99.90;;;;;;5013427;28;20193;-77
2021/07/22 12:31:21;;;;;;;14.33;13.03;;;27.20;99.90;;;;;;5013551;28;20188;-77
2021/07/22 12:33:59;;;;;;;15.43;14.00;;;27.20;99.90;;;;;;5013495;28;20199;-77
2021/07/22 12:36:30;;;;;;;14.53;13.07;;;27.20;99.90;;;;;;5013397;28;20216;-78
2021/07/22 12:39:14;;;;;;;13.97;12.67;;;27.10;99.90;;;;;;4995834;28;20215;-77
2021/07/22 12:41:42;;;;;;;12.90;11.80;;;27.10;99.90;;;;;;4994571;28;20211;-78
2021/07/22 12:44:09;;;;;;;13.27;11.97;;;27.30;99.90;;;;;;5013480;28;20247;-77
2021/07/22 12:46:36;;;;;;;13.40;12.10;;;27.30;99.90;;;;;;5013355;28;20204;-77
2021/07/22 12:49:05;;;;;;;14.00;12.70;;;27.30;99.90;;;;;;5011746;28;20193;-78
2021/07/22 12:51:31;;;;;;;14.20;12.90;;;27.20;99.90;;;;;;5011884;28;20205;-78
2021/07/22 12:53:58;;;;;;;14.03;12.73;;;27.30;99.90;;;;;;4995783;28;20259;-77